Time;durP1;ratioP1;P1;durP2;ratioP2;P2;SDS_P1;SDS_P2;PMS_P1;PMS_P2;Temp;Humidity;BMP_temperature;BMP_pressure;BME280_temperature;BME280_humidity;BME280_pressure;Samples;Min_cycle;Max_cycle;Signal;HPM_P1;HPM_P2
2022/08/25 00:01:13;;;;;;;9.10;3.77;;;;;;;;;;5091445;28;20730;-69
2022/08/25 00:03:40;;;;;;;6.00;4.00;;;;;;;;;;5092136;28;20466;-69
2022/08/25 00:06:08;;;;;;;7.17;3.80;;;;;;;;;;5091919;28;20736;-69
2022/08/25 00:08:37;;;;;;;6.40;3.93;;;;;;;;;;5093116;28;20550;-69
2022/08/25 00:11:04;;;;;;;8.67;3.67;;;;;;;;;;5096949;27;20486;-69
2022/08/25 00:13:32;;;;;;;4.83;3.43;;;;;;;;;;5099306;28;20467;-69
2022/08/25 00:16:00;;;;;;;5.43;4.00;;;;;;;;;;5098311;27;20968;-69
2022/08/25 00:18:27;;;;;;;6.10;4.20;;;;;;;;;;5098110;28;20475;-69
2022/08/25 00:20:54;;;;;;;10.53;4.13;;;;;;;;;;5097922;27;20668;-69
2022/08/25 00:23:21;;;;;;;7.03;5.50;;;;;;;;;;5098818;28;20882;-69
2022/08/25 00:25:49;;;;;;;5.90;3.83;;;;;;;;;;5098337;28;20523;-69
2022/08/25 00:28:16;;;;;;;7.13;3.83;;;;;;;;;;5099276;28;20459;-69
2022/08/25 00:30:45;;;;;;;6.90;4.23;;;;;;;;;;5099555;28;20625;-69
2022/08/25 00:33:12;;;;;;;4.80;3.40;;;;;;;;;;5098331;28;20843;-69
2022/08/25 00:35:41;;;;;;;4.53;3.43;;;;;;;;;;5098182;28;20490;-69
2022/08/25 00:38:08;;;;;;;5.83;4.00;;;;;;;;;;5099085;28;20931;-69
2022/08/25 00:40:35;;;;;;;5.27;4.30;;;;;;;;;;5097851;28;20459;-69
2022/08/25 00:43:04;;;;;;;5.67;4.20;;;;;;;;;;5097753;28;20673;-70
2022/08/25 00:45:34;;;;;;;6.73;4.17;;;;;;;;;;5097292;27;20447;-70
2022/08/25 00:48:02;;;;;;;7.07;4.20;;;;;;;;;;5098254;28;20451;-70
2022/08/25 00:50:30;;;;;;;5.10;3.90;;;;;;;;;;5098748;27;20873;-70
2022/08/25 00:53:00;;;;;;;5.50;4.57;;;;;;;;;;5098141;27;20467;-71
2022/08/25 00:55:29;;;;;;;5.53;3.63;;;;;;;;;;5098171;27;20540;-70
2022/08/25 00:57:57;;;;;;;8.83;3.90;;;;;;;;;;5097598;28;20907;-70
2022/08/25 01:00:26;;;;;;;6.97;4.20;;;;;;;;;;5098939;28;20456;-70
2022/08/25 01:02:55;;;;;;;6.90;4.13;;;;;;;;;;5097993;28;20536;-70
2022/08/25 01:05:23;;;;;;;12.10;4.73;;;;;;;;;;5098202;28;20472;-70
2022/08/25 01:07:51;;;;;;;6.03;4.60;;;;;;;;;;5098297;28;20859;-70
2022/08/25 01:10:19;;;;;;;6.00;4.30;;;;;;;;;;5098181;28;20450;-70
2022/08/25 01:12:46;;;;;;;7.73;3.80;;;;;;;;;;5098023;28;20554;-70
2022/08/25 01:15:14;;;;;;;8.17;4.20;;;;;;;;;;5098061;28;20475;-71
2022/08/25 01:17:46;;;;;;;6.77;4.73;;;;;;;;;;5098108;27;20440;-71
2022/08/25 01:20:13;;;;;;;6.47;3.77;;;;;;;;;;5098149;28;20452;-70
2022/08/25 01:22:41;;;;;;;7.73;4.40;;;;;;;;;;5093255;28;20435;-70
2022/08/25 01:25:17;;;;;;;6.53;4.80;;;;;;;;;;5095199;28;20776;-70
2022/08/25 01:27:44;;;;;;;5.30;4.40;;;;;;;;;;5094196;28;20451;-70
2022/08/25 01:30:11;;;;;;;5.60;3.87;;;;;;;;;;5092896;28;20491;-70
2022/08/25 01:32:39;;;;;;;7.60;4.43;;;;;;;;;;5094377;28;20481;-70
2022/08/25 01:35:06;;;;;;;5.27;4.33;;;;;;;;;;5094197;28;20949;-70
2022/08/25 01:37:36;;;;;;;7.50;4.53;;;;;;;;;;5094632;28;20853;-70
2022/08/25 01:40:05;;;;;;;8.53;4.27;;;;;;;;;;5093216;28;20466;-70
2022/08/25 01:42:42;;;;;;;5.03;4.10;;;;;;;;;;5093144;28;20797;-70
2022/08/25 01:45:09;;;;;;;6.80;4.10;;;;;;;;;;5093974;28;20482;-70
2022/08/25 01:47:37;;;;;;;5.43;4.53;;;;;;;;;;5093938;28;20694;-70
2022/08/25 01:50:05;;;;;;;6.47;4.17;;;;;;;;;;5094131;28;20506;-70
2022/08/25 01:52:34;;;;;;;7.43;4.57;;;;;;;;;;5093460;28;20462;-70
2022/08/25 01:55:01;;;;;;;9.77;4.30;;;;;;;;;;5093814;28;20951;-70
2022/08/25 01:57:30;;;;;;;4.77;4.30;;;;;;;;;;5093552;28;21005;-70
2022/08/25 01:59:57;;;;;;;6.13;4.07;;;;;;;;;;5094248;28;20558;-70
2022/08/25 02:02:24;;;;;;;4.83;4.20;;;;;;;;;;5094199;28;20478;-70
2022/08/25 02:04:52;;;;;;;6.67;4.97;;;;;;;;;;5093943;28;20751;-70
2022/08/25 02:07:19;;;;;;;4.97;4.23;;;;;;;;;;5094339;28;20506;-70
2022/08/25 02:09:46;;;;;;;5.57;4.23;;;;;;;;;;5094615;28;20459;-70
2022/08/25 02:12:14;;;;;;;6.20;4.50;;;;;;;;;;5094422;28;20615;-70
2022/08/25 02:14:42;;;;;;;4.90;3.57;;;;;;;;;;5094293;28;20516;-70
2022/08/25 02:17:10;;;;;;;5.83;4.27;;;;;;;;;;5092392;28;20478;-70
2022/08/25 02:19:38;;;;;;;5.97;4.17;;;;;;;;;;5093490;28;20448;-70
2022/08/25 02:22:05;;;;;;;5.70;4.40;;;;;;;;;;5093334;28;20444;-70
2022/08/25 02:24:33;;;;;;;6.07;4.30;;;;;;;;;;5093136;28;20447;-70
2022/08/25 02:27:02;;;;;;;6.17;4.07;;;;;;;;;;5093510;28;20447;-70
2022/08/25 02:29:33;;;;;;;8.80;4.47;;;;;;;;;;5093276;28;20759;-70
2022/08/25 02:32:01;;;;;;;5.97;4.90;;;;;;;;;;5093648;28;20448;-70
2022/08/25 02:34:29;;;;;;;10.07;4.77;;;;;;;;;;5092244;28;20448;-71
2022/08/25 02:36:56;;;;;;;6.57;4.80;;;;;;;;;;5093629;28;20799;-70
2022/08/25 02:39:24;;;;;;;5.83;4.37;;;;;;;;;;5093521;28;20443;-70
2022/08/25 02:41:51;;;;;;;7.80;4.37;;;;;;;;;;5092717;28;20467;-70
2022/08/25 02:44:20;;;;;;;6.77;4.80;;;;;;;;;;5093951;28;20448;-70
2022/08/25 02:46:47;;;;;;;5.87;4.43;;;;;;;;;;5092950;28;20499;-70
2022/08/25 02:49:16;;;;;;;6.00;4.47;;;;;;;;;;5093798;28;20475;-70
2022/08/25 02:51:43;;;;;;;7.17;4.73;;;;;;;;;;5093767;28;20475;-70
2022/08/25 02:54:10;;;;;;;7.37;4.77;;;;;;;;;;5092195;28;20497;-70
2022/08/25 02:56:37;;;;;;;8.20;5.10;;;;;;;;;;5093748;28;20753;-70
2022/08/25 02:59:04;;;;;;;4.90;4.40;;;;;;;;;;5093389;28;20556;-70
2022/08/25 03:01:31;;;;;;;6.13;4.60;;;;;;;;;;5092648;28;20560;-70
2022/08/25 03:03:59;;;;;;;5.50;4.17;;;;;;;;;;5092556;28;20480;-70
2022/08/25 03:06:27;;;;;;;6.20;4.40;;;;;;;;;;5093212;28;20475;-70
2022/08/25 03:08:55;;;;;;;8.23;5.30;;;;;;;;;;5091833;28;21037;-70
2022/08/25 03:11:24;;;;;;;7.10;4.97;;;;;;;;;;5091704;28;20485;-70
2022/08/25 03:13:51;;;;;;;5.00;4.30;;;;;;;;;;5092681;28;20448;-70
2022/08/25 03:16:21;;;;;;;21.73;16.80;;;;;;;;;;5093603;28;20582;-70
2022/08/25 03:18:48;;;;;;;5.03;4.47;;;;;;;;;;5093363;28;20440;-70
2022/08/25 03:21:16;;;;;;;6.50;4.90;;;;;;;;;;5093622;28;20502;-70
2022/08/25 03:23:44;;;;;;;6.67;5.37;;;;;;;;;;5092407;28;20448;-70
2022/08/25 03:29:03;;;;;;;6.80;4.43;;;;;;;;;;5093540;28;20439;-70
2022/08/25 03:31:31;;;;;;;6.83;5.00;;;;;;;;;;5093823;28;20470;-70
2022/08/25 03:33:58;;;;;;;8.40;5.17;;;;;;;;;;5093522;28;20440;-70
2022/08/25 03:36:26;;;;;;;6.30;4.47;;;;;;;;;;5093907;28;20503;-70
2022/08/25 03:38:54;;;;;;;5.83;5.10;;;;;;;;;;5093800;28;20475;-70
2022/08/25 03:41:22;;;;;;;7.40;4.80;;;;;;;;;;5093548;28;20462;-70
2022/08/25 03:43:49;;;;;;;9.20;4.60;;;;;;;;;;5092628;28;20458;-70
2022/08/25 03:46:18;;;;;;;7.30;4.63;;;;;;;;;;5092294;28;20451;-70
2022/08/25 03:48:47;;;;;;;5.20;4.60;;;;;;;;;;5091433;28;20516;-71
2022/08/25 03:51:19;;;;;;;9.00;5.30;;;;;;;;;;5092329;28;20532;-70
2022/08/25 03:53:47;;;;;;;6.37;5.60;;;;;;;;;;5093695;28;20444;-70
2022/08/25 03:56:15;;;;;;;7.83;5.50;;;;;;;;;;5093303;28;20484;-70
2022/08/25 03:58:43;;;;;;;9.70;5.77;;;;;;;;;;5093123;28;20506;-70
2022/08/25 04:01:10;;;;;;;7.83;5.50;;;;;;;;;;5093837;28;20789;-70
2022/08/25 04:03:37;;;;;;;6.27;4.83;;;;;;;;;;5092416;28;20455;-70
2022/08/25 04:06:05;;;;;;;8.27;5.73;;;;;;;;;;5092840;28;20479;-70
2022/08/25 04:08:32;;;;;;;11.67;5.43;;;;;;;;;;5091728;28;20512;-70
2022/08/25 04:10:59;;;;;;;7.87;6.10;;;;;;;;;;5091046;28;20838;-70
2022/08/25 04:13:28;;;;;;;5.63;5.10;;;;;;;;;;5092571;28;20470;-70
2022/08/25 04:15:55;;;;;;;6.87;6.17;;;;;;;;;;5091332;28;20476;-70
2022/08/25 04:18:22;;;;;;;9.90;5.70;;;;;;;;;;5093017;28;20730;-70
2022/08/25 04:20:49;;;;;;;10.40;6.33;;;;;;;;;;5091885;28;20607;-70
2022/08/25 04:23:16;;;;;;;8.43;5.77;;;;;;;;;;5091966;28;20546;-70
2022/08/25 04:25:43;;;;;;;8.20;5.20;;;;;;;;;;5092889;28;20463;-70
2022/08/25 04:28:11;;;;;;;7.97;4.73;;;;;;;;;;5091927;28;20512;-70
2022/08/25 04:30:42;;;;;;;8.20;5.47;;;;;;;;;;5091524;28;20528;-70
2022/08/25 04:33:12;;;;;;;7.53;5.90;;;;;;;;;;5090882;28;20734;-70
2022/08/25 04:35:40;;;;;;;10.83;5.57;;;;;;;;;;5090753;28;20488;-70
2022/08/25 04:38:07;;;;;;;10.57;6.53;;;;;;;;;;5089987;28;20759;-70
2022/08/25 04:40:36;;;;;;;11.37;6.13;;;;;;;;;;5090610;28;20466;-70
2022/08/25 04:43:04;;;;;;;7.43;6.53;;;;;;;;;;5090087;28;20451;-70
2022/08/25 04:45:31;;;;;;;9.53;6.17;;;;;;;;;;5090496;28;20874;-70
2022/08/25 04:48:00;;;;;;;7.70;5.60;;;;;;;;;;5090909;28;20439;-70
2022/08/25 04:50:27;;;;;;;7.17;6.20;;;;;;;;;;5089905;28;20471;-70
2022/08/25 04:52:54;;;;;;;15.03;6.80;;;;;;;;;;5090054;28;20571;-70
2022/08/25 04:55:22;;;;;;;12.00;5.73;;;;;;;;;;5090010;28;20528;-70
2022/08/25 04:57:49;;;;;;;8.67;6.73;;;;;;;;;;5091678;28;20509;-70
2022/08/25 05:00:17;;;;;;;8.47;6.13;;;;;;;;;;5092657;28;20805;-70
2022/08/25 05:02:44;;;;;;;9.80;6.43;;;;;;;;;;5092103;28;20448;-72
2022/08/25 05:05:12;;;;;;;11.90;6.50;;;;;;;;;;5093321;28;20517;-71
2022/08/25 05:07:39;;;;;;;8.30;6.23;;;;;;;;;;5090930;28;20857;-70
2022/08/25 05:10:07;;;;;;;10.77;8.20;;;;;;;;;;5090231;28;20455;-70
2022/08/25 05:12:35;;;;;;;7.87;6.90;;;;;;;;;;5093545;28;21048;-70
2022/08/25 05:15:49;;;;;;;12.00;7.33;;;;;;;;;;5091332;28;20723;-70
2022/08/25 05:17:52;;;;;;;9.97;6.97;;;;;;;;;;5090700;28;20450;-71
2022/08/25 05:20:23;;;;;;;12.50;7.57;;;;;;;;;;5088557;28;20792;-71
2022/08/25 05:22:51;;;;;;;10.80;7.13;;;;;;;;;;5092448;28;20454;-70
2022/08/25 05:25:18;;;;;;;11.10;8.00;;;;;;;;;;5090923;28;20566;-70
2022/08/25 05:27:45;;;;;;;11.43;9.43;;;;;;;;;;5089721;28;20505;-71
2022/08/25 05:30:13;;;;;;;11.03;7.90;;;;;;;;;;5086664;28;20451;-70
2022/08/25 05:32:40;;;;;;;11.90;8.87;;;;;;;;;;5089138;28;20711;-70
2022/08/25 05:35:07;;;;;;;9.77;8.17;;;;;;;;;;5091254;28;20455;-70
2022/08/25 05:37:36;;;;;;;12.57;8.53;;;;;;;;;;5088242;28;20516;-71
2022/08/25 05:40:03;;;;;;;10.27;8.13;;;;;;;;;;5089346;28;20470;-70
2022/08/25 05:42:31;;;;;;;9.80;8.00;;;;;;;;;;5090049;28;20475;-70
2022/08/25 05:44:58;;;;;;;10.93;8.53;;;;;;;;;;5075737;28;20525;-70
2022/08/25 05:47:25;;;;;;;10.93;8.83;;;;;;;;;;5084981;28;20479;-69
2022/08/25 05:49:52;;;;;;;10.23;9.13;;;;;;;;;;5089758;28;21045;-70
2022/08/25 05:52:19;;;;;;;11.10;7.93;;;;;;;;;;5091130;28;20448;-71
2022/08/25 05:54:48;;;;;;;11.90;9.20;;;;;;;;;;5091650;28;20455;-71
2022/08/25 05:57:16;;;;;;;14.97;9.17;;;;;;;;;;5089634;28;20463;-70
2022/08/25 05:59:43;;;;;;;11.03;7.73;;;;;;;;;;5088959;28;20467;-71
2022/08/25 06:04:56;;;;;;;10.40;8.37;;;;;;;;;;5090748;28;20485;-71
2022/08/25 06:07:23;;;;;;;10.83;7.63;;;;;;;;;;5091564;28;20459;-71
2022/08/25 06:09:52;;;;;;;11.03;8.80;;;;;;;;;;5091579;28;20510;-71
2022/08/25 06:12:20;;;;;;;11.47;8.90;;;;;;;;;;5090886;28;20711;-71
2022/08/25 06:14:48;;;;;;;11.10;8.20;;;;;;;;;;5091064;28;20459;-71
2022/08/25 06:17:17;;;;;;;12.67;8.80;;;;;;;;;;5091443;28;20552;-71
2022/08/25 06:19:44;;;;;;;14.90;8.57;;;;;;;;;;5086866;28;20461;-71
2022/08/25 06:22:11;;;;;;;10.07;8.07;;;;;;;;;;5091953;28;20455;-71
2022/08/25 06:24:38;;;;;;;8.80;7.40;;;;;;;;;;5091154;28;20722;-70
2022/08/25 06:27:08;;;;;;;8.50;7.60;;;;;;;;;;5084676;28;20467;-70
2022/08/25 06:29:36;;;;;;;10.30;8.43;;;;;;;;;;5090992;28;20474;-71
2022/08/25 06:32:03;;;;;;;10.20;7.00;;;;;;;;;;5091019;28;20456;-71
2022/08/25 06:34:30;;;;;;;11.37;7.63;;;;;;;;;;5090679;28;20491;-71
2022/08/25 06:37:00;;;;;;;9.03;7.57;;;;;;;;;;5089889;28;22062;-72
2022/08/25 06:39:27;;;;;;;11.30;7.60;;;;;;;;;;5076815;28;20469;-71
2022/08/25 06:41:55;;;;;;;10.63;7.73;;;;;;;;;;5089256;28;20609;-71
2022/08/25 06:44:26;;;;;;;9.00;7.93;;;;;;;;;;5091367;28;20880;-71
2022/08/25 06:46:56;;;;;;;11.17;8.27;;;;;;;;;;5091348;28;20555;-71
2022/08/25 06:49:26;;;;;;;13.03;9.53;;;;;;;;;;5090384;28;20447;-71
2022/08/25 06:51:53;;;;;;;11.67;7.90;;;;;;;;;;5090440;28;20741;-71
2022/08/25 06:54:21;;;;;;;9.23;7.17;;;;;;;;;;5091236;28;20440;-71
2022/08/25 06:56:48;;;;;;;9.63;7.83;;;;;;;;;;5072384;28;20488;-71
2022/08/25 06:59:16;;;;;;;9.83;8.23;;;;;;;;;;5080495;28;20536;-71
2022/08/25 07:01:45;;;;;;;12.50;7.50;;;;;;;;;;5091138;28;20471;-71
2022/08/25 07:04:12;;;;;;;9.70;7.90;;;;;;;;;;5090369;28;20550;-71
2022/08/25 07:06:44;;;;;;;10.73;8.47;;;;;;;;;;5090648;28;20480;-71
2022/08/25 07:09:12;;;;;;;8.33;7.53;;;;;;;;;;5071841;28;20635;-70
2022/08/25 07:11:40;;;;;;;9.20;7.93;;;;;;;;;;5071124;28;20453;-71
2022/08/25 07:14:09;;;;;;;9.40;8.37;;;;;;;;;;5070996;28;20449;-71
2022/08/25 07:16:36;;;;;;;8.50;7.30;;;;;;;;;;5070722;28;20538;-71
2022/08/25 07:19:06;;;;;;;12.03;8.80;;;;;;;;;;5067543;28;20453;-71
2022/08/25 07:21:34;;;;;;;15.20;11.63;;;;;;;;;;5069175;28;20441;-71
2022/08/25 07:24:02;;;;;;;12.20;9.33;;;;;;;;;;5069498;28;20520;-71
2022/08/25 07:26:34;;;;;;;13.60;8.90;;;;;;;;;;5069488;28;20457;-71
2022/08/25 07:29:03;;;;;;;10.27;8.97;;;;;;;;;;5070793;28;20469;-72
2022/08/25 07:31:36;;;;;;;11.97;8.57;;;;;;;;;;5069409;28;20463;-72
2022/08/25 07:36:49;;;;;;;14.87;10.87;;;;;;;;;;5079707;28;20490;-71
2022/08/25 07:39:17;;;;;;;20.03;16.67;;;;;;;;;;5091340;28;20460;-71
2022/08/25 07:41:44;;;;;;;14.23;12.73;;;;;;;;;;5091152;28;20436;-71
2022/08/25 07:44:12;;;;;;;13.20;10.33;;;;;;;;;;5089798;28;20459;-71
2022/08/25 07:46:40;;;;;;;13.33;9.77;;;;;;;;;;5089636;28;20451;-70
2022/08/25 07:49:07;;;;;;;13.37;10.30;;;;;;;;;;5086750;28;20540;-70
2022/08/25 07:51:34;;;;;;;11.87;9.30;;;;;;;;;;5090382;28;20862;-71
2022/08/25 07:54:03;;;;;;;13.03;9.70;;;;;;;;;;5089849;28;20587;-71
2022/08/25 07:56:30;;;;;;;13.90;11.00;;;;;;;;;;5088279;28;20484;-71
2022/08/25 07:58:57;;;;;;;13.40;10.17;;;;;;;;;;5091278;28;20477;-70
2022/08/25 08:01:28;;;;;;;11.70;9.97;;;;;;;;;;5088047;28;20463;-70
2022/08/25 08:03:55;;;;;;;12.70;9.40;;;;;;;;;;5090629;28;20531;-70
2022/08/25 08:06:23;;;;;;;10.20;8.53;;;;;;;;;;5089693;28;20502;-71
2022/08/25 08:08:52;;;;;;;11.80;8.67;;;;;;;;;;5088514;28;20465;-71
2022/08/25 08:11:22;;;;;;;15.43;9.20;;;;;;;;;;5082303;28;20569;-71
2022/08/25 08:13:50;;;;;;;16.67;10.00;;;;;;;;;;5086156;28;20463;-71
2022/08/25 08:16:18;;;;;;;13.80;9.80;;;;;;;;;;5090272;28;20979;-70
2022/08/25 08:18:46;;;;;;;12.80;10.50;;;;;;;;;;5088437;28;20474;-71
2022/08/25 08:21:14;;;;;;;13.27;9.83;;;;;;;;;;5077988;28;20494;-71
2022/08/25 08:23:43;;;;;;;11.40;9.70;;;;;;;;;;5087720;28;20471;-71
2022/08/25 08:26:13;;;;;;;12.17;10.33;;;;;;;;;;5073337;28;20588;-71
2022/08/25 08:28:42;;;;;;;29.57;22.57;;;;;;;;;;5080760;28;20515;-71
2022/08/25 08:31:12;;;;;;;24.57;20.23;;;;;;;;;;5084959;28;20467;-70
2022/08/25 08:33:39;;;;;;;13.67;11.33;;;;;;;;;;5085341;28;21022;-72
2022/08/25 08:36:13;;;;;;;15.40;11.03;;;;;;;;;;5090258;28;21177;-71
2022/08/25 08:38:47;;;;;;;13.03;9.80;;;;;;;;;;5083666;28;20520;-71
2022/08/25 08:44:14;;;;;;;12.03;10.53;;;;;;;;;;5083733;28;21115;-72
2022/08/25 08:46:56;;;;;;;15.80;9.80;;;;;;;;;;5082089;28;20490;-71
2022/08/25 08:49:28;;;;;;;14.40;9.50;;;;;;;;;;5091253;28;20463;-72
2022/08/25 08:52:02;;;;;;;12.30;9.60;;;;;;;;;;5086274;28;20746;-70
2022/08/25 08:54:34;;;;;;;11.20;10.00;;;;;;;;;;5089032;28;20456;-71
2022/08/25 09:00:28;;;;;;;15.13;9.43;;;;;;;;;;5033566;28;20494;-71
2022/08/25 09:03:04;;;;;;;13.97;11.07;;;;;;;;;;5087547;28;20467;-71
2022/08/25 09:05:43;;;;;;;11.37;10.17;;;;;;;;;;5081515;28;20748;-71
2022/08/25 09:08:16;;;;;;;13.93;10.07;;;;;;;;;;5091911;28;20451;-71
2022/08/25 09:10:52;;;;;;;13.50;10.50;;;;;;;;;;5091604;28;20495;-71
2022/08/25 09:13:29;;;;;;;11.57;9.20;;;;;;;;;;5090871;28;20884;-71
2022/08/25 09:18:54;;;;;;;14.40;8.90;;;;;;;;;;5089915;28;20457;-71
2022/08/25 09:21:27;;;;;;;12.43;8.63;;;;;;;;;;5091493;28;20459;-70
2022/08/25 09:24:04;;;;;;;10.17;8.50;;;;;;;;;;5092272;28;20451;-70
2022/08/25 09:26:42;;;;;;;14.57;9.13;;;;;;;;;;5092533;28;20459;-71
2022/08/25 09:29:17;;;;;;;12.73;8.07;;;;;;;;;;5083020;28;20437;-70
2022/08/25 09:31:47;;;;;;;13.40;8.13;;;;;;;;;;5082770;28;20463;-70
2022/08/25 09:34:18;;;;;;;11.33;8.50;;;;;;;;;;5083151;28;20566;-70
2022/08/25 09:36:49;;;;;;;14.10;10.90;;;;;;;;;;5083847;28;21077;-71
2022/08/25 09:39:19;;;;;;;14.13;8.17;;;;;;;;;;5090358;28;20490;-71
2022/08/25 09:41:49;;;;;;;11.00;6.93;;;;;;;;;;5090621;28;20534;-72
2022/08/25 09:44:18;;;;;;;9.80;7.97;;;;;;;;;;5091163;28;20491;-71
2022/08/25 09:46:55;;;;;;;12.37;7.67;;;;;;;;;;5091832;28;20444;-72
2022/08/25 09:49:36;;;;;;;16.73;12.43;;;;;;;;;;5071765;28;20464;-72
2022/08/25 09:52:36;;;;;;;9.40;7.83;;;;;;;;;;5085080;28;20841;-71
2022/08/25 09:55:22;;;;;;;9.87;8.87;;;;;;;;;;5007214;28;21041;-71
2022/08/25 09:57:54;;;;;;;14.30;9.30;;;;;;;;;;5002010;28;20467;-72
2022/08/25 10:00:24;;;;;;;11.37;8.33;;;;;;;;;;5051490;28;21037;-72
2022/08/25 10:03:07;;;;;;;9.20;7.40;;;;;;;;;;5084439;27;20453;-72
2022/08/25 10:05:35;;;;;;;8.93;6.67;;;;;;;;;;5085988;28;20483;-72
2022/08/25 10:08:04;;;;;;;13.37;8.20;;;;;;;;;;5079440;28;20503;-72
2022/08/25 10:10:32;;;;;;;7.27;6.37;;;;;;;;;;5079393;28;20449;-71
2022/08/25 10:13:02;;;;;;;9.07;6.33;;;;;;;;;;5089621;28;20459;-72
2022/08/25 10:15:30;;;;;;;6.60;5.80;;;;;;;;;;5074027;28;20555;-72
2022/08/25 10:18:16;;;;;;;15.20;6.17;;;;;;;;;;5077147;28;20689;-72
2022/08/25 10:21:02;;;;;;;9.57;6.97;;;;;;;;;;5087627;28;20470;-72
2022/08/25 10:23:29;;;;;;;8.93;6.33;;;;;;;;;;5075956;28;20478;-71
2022/08/25 10:26:01;;;;;;;9.03;7.57;;;;;;;;;;5083503;28;20462;-71
2022/08/25 10:28:33;;;;;;;9.90;6.67;;;;;;;;;;5090331;28;20487;-72
2022/08/25 10:31:06;;;;;;;9.83;5.93;;;;;;;;;;5078865;28;20460;-73
2022/08/25 10:33:51;;;;;;;9.30;5.30;;;;;;;;;;5090530;28;20550;-72
2022/08/25 10:36:31;;;;;;;7.20;5.30;;;;;;;;;;5086349;28;20536;-72
2022/08/25 10:39:03;;;;;;;7.97;5.60;;;;;;;;;;5091721;28;21042;-72
2022/08/25 10:41:39;;;;;;;7.50;6.00;;;;;;;;;;5090545;28;20451;-72
2022/08/25 10:47:10;;;;;;;8.60;5.60;;;;;;;;;;5070241;28;20461;-72
2022/08/25 10:49:46;;;;;;;9.63;5.43;;;;;;;;;;5086174;28;20986;-73
2022/08/25 10:52:16;;;;;;;7.97;4.97;;;;;;;;;;5070698;28;20437;-72
2022/08/25 10:54:49;;;;;;;6.40;4.50;;;;;;;;;;5086802;28;20455;-72
2022/08/25 10:57:25;;;;;;;5.60;3.40;;;;;;;;;;5083880;28;20515;-73
2022/08/25 10:59:58;;;;;;;8.20;5.23;;;;;;;;;;5088546;28;20459;-72
2022/08/25 11:02:39;;;;;;;7.27;5.27;;;;;;;;;;5089928;28;20558;-72
2022/08/25 11:05:10;;;;;;;8.00;4.30;;;;;;;;;;5073079;28;20445;-72
2022/08/25 11:07:41;;;;;;;9.57;5.90;;;;;;;;;;5070284;28;20492;-72
2022/08/25 11:10:13;;;;;;;6.67;4.47;;;;;;;;;;5070079;28;20465;-71
2022/08/25 11:12:44;;;;;;;10.03;6.37;;;;;;;;;;5079604;28;20541;-72
2022/08/25 11:15:21;;;;;;;6.50;4.77;;;;;;;;;;5078341;28;20483;-71
2022/08/25 11:17:52;;;;;;;6.47;4.50;;;;;;;;;;5077421;28;21098;-72
2022/08/25 11:20:23;;;;;;;7.17;4.43;;;;;;;;;;5089422;28;20798;-72
2022/08/25 11:22:57;;;;;;;7.77;4.20;;;;;;;;;;5089457;28;20451;-71
2022/08/25 11:25:28;;;;;;;7.17;4.83;;;;;;;;;;5076714;28;20468;-70
2022/08/25 11:28:05;;;;;;;9.70;4.70;;;;;;;;;;5088123;28;20474;-71
2022/08/25 11:30:35;;;;;;;6.63;4.37;;;;;;;;;;5077941;28;21042;-71
2022/08/25 11:33:04;;;;;;;8.00;4.50;;;;;;;;;;5076126;28;20470;-71
2022/08/25 11:35:33;;;;;;;6.13;4.10;;;;;;;;;;5082902;28;21247;-73
2022/08/25 11:38:12;;;;;;;5.60;3.70;;;;;;;;;;5078914;28;20471;-72
2022/08/25 11:40:52;;;;;;;5.63;3.80;;;;;;;;;;5079571;28;20471;-71
2022/08/25 11:43:38;;;;;;;11.50;5.13;;;;;;;;;;5078144;28;20467;-71
2022/08/25 11:46:18;;;;;;;6.07;4.00;;;;;;;;;;5061822;28;20527;-71
2022/08/25 11:48:53;;;;;;;6.20;4.47;;;;;;;;;;5074420;28;20457;-71
2022/08/25 11:51:32;;;;;;;6.07;3.67;;;;;;;;;;5077693;28;20544;-71
2022/08/25 11:54:17;;;;;;;6.70;4.33;;;;;;;;;;5088300;28;20553;-72
2022/08/25 11:56:51;;;;;;;5.87;4.23;;;;;;;;;;5087592;28;20479;-73
2022/08/25 11:59:33;;;;;;;4.10;3.33;;;;;;;;;;5087655;28;20451;-72
2022/08/25 12:02:01;;;;;;;5.03;4.20;;;;;;;;;;5088222;28;20447;-73
2022/08/25 12:04:33;;;;;;;8.67;4.30;;;;;;;;;;5087631;28;20467;-73
2022/08/25 12:07:18;;;;;;;5.50;4.07;;;;;;;;;;5081612;28;20487;-72
2022/08/25 12:10:06;;;;;;;6.53;3.83;;;;;;;;;;5078478;28;20835;-73
2022/08/25 12:12:37;;;;;;;7.80;3.40;;;;;;;;;;5079708;28;20474;-73
2022/08/25 12:15:15;;;;;;;6.00;3.77;;;;;;;;;;5070068;28;20546;-73
2022/08/25 12:17:43;;;;;;;6.57;4.23;;;;;;;;;;5082291;28;20505;-73
2022/08/25 12:20:12;;;;;;;6.27;4.53;;;;;;;;;;5085514;28;20764;-73
2022/08/25 12:22:50;;;;;;;7.07;4.53;;;;;;;;;;5088945;28;20463;-73
2022/08/25 12:25:38;;;;;;;20.30;4.70;;;;;;;;;;5087190;28;20459;-73
2022/08/25 12:28:11;;;;;;;4.57;3.70;;;;;;;;;;5079063;28;20460;-73
2022/08/25 12:30:46;;;;;;;6.57;3.90;;;;;;;;;;5082005;28;20833;-72
2022/08/25 12:33:40;;;;;;;8.53;4.27;;;;;;;;;;5091139;28;20451;-72
2022/08/25 12:36:08;;;;;;;7.10;3.40;;;;;;;;;;5080059;28;20486;-73
2022/08/25 12:38:37;;;;;;;9.47;4.40;;;;;;;;;;5088900;28;20763;-72
2022/08/25 12:41:10;;;;;;;8.13;3.67;;;;;;;;;;5069100;28;20475;-73
2022/08/25 12:43:46;;;;;;;6.20;3.60;;;;;;;;;;5083791;28;20543;-73
2022/08/25 12:46:32;;;;;;;5.83;4.50;;;;;;;;;;5086820;28;20924;-73
2022/08/25 12:49:06;;;;;;;6.70;3.43;;;;;;;;;;5085865;28;20467;-73
2022/08/25 12:51:49;;;;;;;6.37;3.87;;;;;;;;;;5089853;28;20455;-72
2022/08/25 12:54:20;;;;;;;8.67;4.10;;;;;;;;;;5083082;28;20473;-73
2022/08/25 12:56:50;;;;;;;8.83;4.03;;;;;;;;;;5069131;28;20559;-72
2022/08/25 12:59:22;;;;;;;6.03;3.13;;;;;;;;;;5069878;28;20521;-72
2022/08/25 13:02:12;;;;;;;7.80;3.73;;;;;;;;;;5086388;28;20478;-72
2022/08/25 13:04:57;;;;;;;5.50;3.23;;;;;;;;;;5068241;28;20950;-72
2022/08/25 13:07:40;;;;;;;6.20;3.93;;;;;;;;;;5087626;28;20475;-73
2022/08/25 13:10:27;;;;;;;6.63;4.40;;;;;;;;;;5069175;28;20503;-71
2022/08/25 13:13:01;;;;;;;7.40;4.27;;;;;;;;;;5087500;28;20474;-72
2022/08/25 13:18:40;;;;;;;7.60;4.50;;;;;;;;;;5070338;28;20452;-74
2022/08/25 13:21:13;;;;;;;6.60;4.30;;;;;;;;;;5073032;28;20844;-71
2022/08/25 13:23:42;;;;;;;12.83;7.17;;;;;;;;;;5066063;28;20635;-72
2022/08/25 13:26:12;;;;;;;5.97;4.57;;;;;;;;;;5078936;28;20503;-72
2022/08/25 13:28:58;;;;;;;9.70;4.30;;;;;;;;;;5082671;28;21114;-71
2022/08/25 13:31:32;;;;;;;6.47;4.53;;;;;;;;;;5079119;28;20803;-73
2022/08/25 13:34:03;;;;;;;7.57;4.87;;;;;;;;;;5079706;28;20464;-71
2022/08/25 13:39:22;;;;;;;9.73;4.10;;;;;;;;;;5089579;28;21096;-75
2022/08/25 13:41:51;;;;;;;7.10;3.83;;;;;;;;;;5091054;28;20963;-73
2022/08/25 13:44:19;;;;;;;9.53;3.60;;;;;;;;;;5091693;28;21226;-73
2022/08/25 13:47:04;;;;;;;6.63;3.50;;;;;;;;;;5087180;28;20467;-74
2022/08/25 13:49:34;;;;;;;8.23;4.10;;;;;;;;;;5089172;28;20471;-74
2022/08/25 13:52:01;;;;;;;10.17;3.60;;;;;;;;;;5089111;28;20550;-71
2022/08/25 13:54:30;;;;;;;8.37;3.30;;;;;;;;;;5091566;28;20460;-73
2022/08/25 13:57:05;;;;;;;9.70;4.03;;;;;;;;;;5086473;28;21036;-73
2022/08/25 13:59:38;;;;;;;12.17;7.17;;;;;;;;;;5087246;28;20512;-72
2022/08/25 14:02:07;;;;;;;9.37;3.80;;;;;;;;;;5083175;28;20455;-71
2022/08/25 14:04:47;;;;;;;10.63;4.30;;;;;;;;;;5070411;28;20781;-72
2022/08/25 14:07:28;;;;;;;9.47;4.47;;;;;;;;;;5082272;28;20503;-71
2022/08/25 14:09:56;;;;;;;10.30;4.07;;;;;;;;;;5090059;28;20455;-72
2022/08/25 14:12:28;;;;;;;9.57;3.57;;;;;;;;;;5090304;28;20733;-71
2022/08/25 14:15:07;;;;;;;7.57;4.37;;;;;;;;;;5090695;28;20769;-72
2022/08/25 14:17:35;;;;;;;5.97;3.67;;;;;;;;;;5087041;28;21369;-71
2022/08/25 14:20:03;;;;;;;7.83;4.87;;;;;;;;;;5089966;28;20471;-71
2022/08/25 14:22:44;;;;;;;11.20;3.90;;;;;;;;;;5086512;28;20444;-72
2022/08/25 14:25:15;;;;;;;6.87;3.80;;;;;;;;;;5088711;28;20459;-72
2022/08/25 14:27:43;;;;;;;8.33;3.70;;;;;;;;;;5092113;28;20544;-72
2022/08/25 14:30:11;;;;;;;10.87;4.23;;;;;;;;;;5076382;28;20483;-72
2022/08/25 14:32:40;;;;;;;10.00;4.40;;;;;;;;;;5076488;28;20452;-72
2022/08/25 14:35:08;;;;;;;7.90;3.00;;;;;;;;;;5078449;28;20452;-71
2022/08/25 14:37:36;;;;;;;8.10;3.93;;;;;;;;;;5077812;28;21033;-71
2022/08/25 14:40:04;;;;;;;12.80;4.67;;;;;;;;;;5089462;28;20452;-71
2022/08/25 14:42:32;;;;;;;8.03;4.33;;;;;;;;;;5070638;28;20452;-71
2022/08/25 14:45:00;;;;;;;7.63;4.03;;;;;;;;;;5082721;28;20464;-71
2022/08/25 14:47:27;;;;;;;10.80;4.57;;;;;;;;;;5088228;28;20897;-72
2022/08/25 14:49:55;;;;;;;8.47;4.93;;;;;;;;;;5081423;28;20897;-72
2022/08/25 14:52:27;;;;;;;9.60;4.97;;;;;;;;;;5081895;28;20484;-71
2022/08/25 14:54:55;;;;;;;7.53;3.90;;;;;;;;;;5078762;27;20877;-71
2022/08/25 14:57:25;;;;;;;9.83;3.87;;;;;;;;;;5070459;28;21032;-72
2022/08/25 14:59:52;;;;;;;7.90;3.80;;;;;;;;;;5086468;28;20470;-72
2022/08/25 15:02:20;;;;;;;5.13;3.20;;;;;;;;;;5091066;28;20435;-71
2022/08/25 15:10:44;;;;;;;12.43;4.53;;;;;;;;;;5070322;28;20761;-71
2022/08/25 15:13:15;;;;;;;6.13;3.33;;;;;;;;;;5070248;28;20528;-72
2022/08/25 15:15:44;;;;;;;6.50;3.83;;;;;;;;;;5071748;28;20445;-72
2022/08/25 15:18:13;;;;;;;7.50;3.67;;;;;;;;;;5071110;28;20563;-73
2022/08/25 15:20:41;;;;;;;7.40;4.07;;;;;;;;;;5084778;28;20948;-72
2022/08/25 15:23:08;;;;;;;11.00;4.50;;;;;;;;;;5090789;28;20448;-73
2022/08/25 15:25:43;;;;;;;7.70;4.23;;;;;;;;;;5090263;28;20490;-72
2022/08/25 15:28:12;;;;;;;7.20;4.50;;;;;;;;;;5089678;28;20458;-72
2022/08/25 15:30:43;;;;;;;9.37;4.73;;;;;;;;;;5072961;28;20469;-72